Time;durP1;ratioP1;P1;durP2;ratioP2;P2;SDS_P1;SDS_P2;PMS_P1;PMS_P2;Temp;Humidity;BMP_temperature;BMP_pressure;BME280_temperature;BME280_humidity;BME280_pressure;Samples;Min_cycle;Max_cycle;Signal;HPM_P1;HPM_P2
2021/04/11 00:01:05;;;;;;;3.83;2.53;;;11.80;99.90;;;;;;5035318;28;20175;-78
2021/04/11 00:03:31;;;;;;;2.87;2.40;;;11.80;99.90;;;;;;5044955;28;20184;-77
2021/04/11 00:05:57;;;;;;;4.23;2.50;;;11.70;99.90;;;;;;5040003;28;20183;-78
2021/04/11 00:08:24;;;;;;;3.63;2.47;;;11.80;99.90;;;;;;5034113;28;20202;-77
2021/04/11 00:10:53;;;;;;;6.23;1.97;;;11.60;99.90;;;;;;5033881;28;20182;-77
2021/04/11 00:13:30;;;;;;;2.73;2.30;;;11.70;99.90;;;;;;5035503;28;20183;-77
2021/04/11 00:15:57;;;;;;;3.00;2.53;;;11.60;99.90;;;;;;5034159;28;20179;-77
2021/04/11 00:18:22;;;;;;;5.60;2.47;;;11.60;99.90;;;;;;5033917;28;20667;-77
2021/04/11 00:20:49;;;;;;;5.40;2.83;;;11.50;99.90;;;;;;5035042;28;20183;-78
2021/04/11 00:23:15;;;;;;;3.87;3.23;;;11.40;99.90;;;;;;5035304;28;20174;-77
2021/04/11 00:25:42;;;;;;;4.63;2.87;;;11.40;99.90;;;;;;5035507;28;20182;-77
2021/04/11 00:28:10;;;;;;;5.03;2.97;;;11.40;99.90;;;;;;5035030;28;20829;-77
2021/04/11 00:30:36;;;;;;;3.13;2.77;;;11.30;99.90;;;;;;5033464;28;20175;-78
2021/04/11 00:33:05;;;;;;;3.43;2.97;;;11.40;99.90;;;;;;5035550;28;20175;-77
2021/04/11 00:35:31;;;;;;;4.23;3.10;;;11.30;99.90;;;;;;5035002;28;20179;-78
2021/04/11 00:37:57;;;;;;;2.97;2.67;;;11.30;99.90;;;;;;5033561;28;20542;-77
2021/04/11 00:40:33;;;;;;;3.73;2.60;;;11.30;99.90;;;;;;5033252;28;20661;-78
2021/04/11 00:43:08;;;;;;;3.33;2.83;;;11.30;99.90;;;;;;5034812;28;20182;-77
2021/04/11 00:46:05;;;;;;;6.80;2.80;;;11.20;99.90;;;;;;5034824;28;20186;-78
2021/04/11 00:48:31;;;;;;;4.80;2.67;;;11.20;99.90;;;;;;5034820;28;20240;-77
2021/04/11 00:51:03;;;;;;;5.30;2.97;;;11.10;99.90;;;;;;5033126;28;20265;-77
2021/04/11 00:53:29;;;;;;;4.00;2.33;;;11.20;99.90;;;;;;5034909;28;20186;-77
2021/04/11 00:55:55;;;;;;;3.60;2.50;;;11.20;99.90;;;;;;5033367;28;20191;-77
2021/04/11 00:58:23;;;;;;;2.93;2.47;;;11.30;99.90;;;;;;5034494;28;20199;-77
2021/04/11 01:00:50;;;;;;;5.03;2.80;;;11.30;99.90;;;;;;5034423;28;20190;-77
2021/04/11 01:03:24;;;;;;;2.70;2.23;;;11.30;99.90;;;;;;5034563;28;20648;-77
2021/04/11 01:05:50;;;;;;;3.20;2.03;;;11.20;99.90;;;;;;5034253;28;20635;-78
2021/04/11 01:08:22;;;;;;;4.33;2.40;;;11.10;99.90;;;;;;5023907;28;20218;-77
2021/04/11 01:10:55;;;;;;;2.27;2.07;;;11.00;99.90;;;;;;5034099;28;20182;-77
2021/04/11 01:13:21;;;;;;;5.20;2.60;;;10.90;99.90;;;;;;5032956;28;20720;-77
2021/04/11 01:15:48;;;;;;;3.63;2.30;;;10.90;99.90;;;;;;5031259;28;20201;-77
2021/04/11 01:18:14;;;;;;;2.93;2.23;;;10.80;99.90;;;;;;5034063;28;20194;-76
2021/04/11 01:20:40;;;;;;;3.07;2.63;;;10.80;99.90;;;;;;5032598;28;20174;-77
2021/04/11 01:23:30;;;;;;;6.37;2.87;;;10.80;99.90;;;;;;5034106;28;20178;-77
2021/04/11 01:25:58;;;;;;;3.87;2.50;;;10.70;99.90;;;;;;5034500;28;20609;-77
2021/04/11 01:28:46;;;;;;;5.10;2.80;;;10.70;99.90;;;;;;5034142;28;20285;-78
2021/04/11 01:31:13;;;;;;;5.40;2.77;;;10.60;99.90;;;;;;5033673;28;20178;-77
2021/04/11 01:33:49;;;;;;;3.90;3.20;;;10.70;99.90;;;;;;5032615;28;20174;-77
2021/04/11 01:36:20;;;;;;;5.50;3.23;;;10.70;99.90;;;;;;5034233;28;20174;-77
2021/04/11 01:38:47;;;;;;;3.60;3.17;;;10.70;99.90;;;;;;5033664;28;20198;-77
2021/04/11 01:41:28;;;;;;;4.63;3.40;;;10.60;99.90;;;;;;5033507;28;20180;-77
2021/04/11 01:43:54;;;;;;;4.57;3.30;;;10.60;99.90;;;;;;5033695;28;20257;-77
2021/04/11 01:46:22;;;;;;;6.30;3.57;;;10.70;99.90;;;;;;5033800;28;20604;-77
2021/04/11 01:48:49;;;;;;;3.63;3.13;;;10.70;99.90;;;;;;5025795;28;20214;-77
2021/04/11 01:51:19;;;;;;;4.60;3.33;;;10.60;99.90;;;;;;5027242;28;20661;-77
2021/04/11 01:53:47;;;;;;;4.63;3.10;;;10.60;99.90;;;;;;5030149;28;20178;-80
2021/04/11 01:56:14;;;;;;;5.13;3.50;;;10.60;99.90;;;;;;5031392;28;20178;-78
2021/04/11 01:58:40;;;;;;;4.37;3.37;;;10.60;99.90;;;;;;5032909;28;20202;-77
2021/04/11 02:01:28;;;;;;;4.87;2.73;;;10.60;99.90;;;;;;5033381;28;20174;-77
2021/04/11 02:03:56;;;;;;;3.70;3.33;;;10.60;99.90;;;;;;5034137;28;20185;-77
2021/04/11 02:06:23;;;;;;;4.90;3.20;;;10.60;99.90;;;;;;5032523;28;20178;-77
2021/04/11 02:08:54;;;;;;;4.30;3.50;;;10.50;99.90;;;;;;5033518;28;20205;-77
2021/04/11 02:11:21;;;;;;;3.50;3.20;;;10.50;99.90;;;;;;5032802;28;20558;-77
2021/04/11 02:13:46;;;;;;;5.73;3.70;;;10.40;99.90;;;;;;5043096;28;20181;-77
2021/04/11 02:16:15;;;;;;;3.80;3.03;;;10.40;99.90;;;;;;5036643;28;20239;-77
2021/04/11 02:18:41;;;;;;;7.13;3.93;;;10.40;99.90;;;;;;5031770;28;20198;-77
2021/04/11 02:21:14;;;;;;;4.50;3.23;;;10.20;99.90;;;;;;5032862;28;20183;-76
2021/04/11 02:23:41;;;;;;;4.27;3.40;;;10.20;99.90;;;;;;5033074;28;20240;-77
2021/04/11 02:26:10;;;;;;;4.67;3.57;;;10.20;99.90;;;;;;5033440;28;20185;-76
2021/04/11 02:28:36;;;;;;;5.83;3.10;;;10.20;99.90;;;;;;5033016;28;20221;-77
2021/04/11 02:31:18;;;;;;;3.40;3.03;;;10.20;99.90;;;;;;5048206;28;20666;-77
2021/04/11 02:33:58;;;;;;;4.03;3.20;;;10.10;99.90;;;;;;5033534;28;20182;-77
2021/04/11 02:36:26;;;;;;;3.40;3.07;;;10.10;99.90;;;;;;5033057;28;20186;-77
2021/04/11 02:38:54;;;;;;;4.37;3.23;;;10.10;99.90;;;;;;5032794;28;20714;-77
2021/04/11 02:41:21;;;;;;;4.70;3.00;;;10.10;99.90;;;;;;5031469;28;20181;-77
2021/04/11 02:43:47;;;;;;;3.47;3.17;;;10.20;99.90;;;;;;5031606;28;20201;-77
2021/04/11 02:46:14;;;;;;;4.27;3.63;;;10.00;99.90;;;;;;5032889;28;20174;-76
2021/04/11 02:48:40;;;;;;;4.20;3.80;;;10.00;99.90;;;;;;5031464;28;20747;-77
2021/04/11 02:51:06;;;;;;;4.63;3.53;;;10.10;99.90;;;;;;5032844;28;20178;-77
2021/04/11 02:53:34;;;;;;;3.87;3.30;;;10.10;99.90;;;;;;5032867;28;20543;-76
2021/04/11 02:56:01;;;;;;;3.67;3.37;;;10.10;99.90;;;;;;5032372;28;20656;-79
2021/04/11 02:58:27;;;;;;;5.60;3.13;;;10.10;99.90;;;;;;5031611;28;20218;-77
2021/04/11 03:01:05;;;;;;;3.53;3.33;;;10.00;99.90;;;;;;5027248;28;20261;-77
2021/04/11 03:03:32;;;;;;;7.73;3.63;;;10.10;99.90;;;;;;5028732;28;20228;-79
2021/04/11 03:06:03;;;;;;;4.30;3.90;;;10.10;99.90;;;;;;5029476;28;20265;-78
2021/04/11 03:08:33;;;;;;;3.80;3.40;;;10.00;99.90;;;;;;5027307;28;20194;-77
2021/04/11 03:11:12;;;;;;;3.63;2.97;;;9.90;99.90;;;;;;5031366;28;20178;-77
2021/04/11 03:13:39;;;;;;;4.87;3.37;;;9.90;99.90;;;;;;5029279;28;20212;-77
2021/04/11 03:16:05;;;;;;;4.10;3.70;;;9.90;99.90;;;;;;5031937;28;20185;-76
2021/04/11 03:18:31;;;;;;;3.20;2.60;;;10.00;99.90;;;;;;5030599;28;20205;-77
2021/04/11 03:20:58;;;;;;;5.23;3.60;;;10.00;99.90;;;;;;5030908;28;20173;-77
2021/04/11 03:23:24;;;;;;;4.80;3.87;;;10.10;99.90;;;;;;5032463;28;20584;-77
2021/04/11 03:25:57;;;;;;;5.23;3.63;;;10.00;99.90;;;;;;5032822;28;20210;-77
2021/04/11 03:28:32;;;;;;;5.13;3.83;;;9.80;99.90;;;;;;5035116;28;20286;-76
2021/04/11 03:31:23;;;;;;;5.30;3.07;;;9.80;99.90;;;;;;5036184;28;20169;-76
2021/04/11 03:33:55;;;;;;;4.23;3.90;;;9.80;99.90;;;;;;5034298;28;20220;-77
2021/04/11 03:36:21;;;;;;;4.20;3.70;;;9.70;99.90;;;;;;5036165;28;20542;-77
2021/04/11 03:38:48;;;;;;;5.03;3.60;;;9.70;99.90;;;;;;5034682;28;20225;-77
2021/04/11 03:41:15;;;;;;;4.37;3.27;;;9.70;99.90;;;;;;5035793;28;20182;-76
2021/04/11 03:43:53;;;;;;;4.37;3.30;;;9.60;99.90;;;;;;5035820;28;20181;-78
2021/04/11 03:47:09;;;;;;;5.67;3.43;;;9.60;99.90;;;;;;5036241;28;20182;-76
2021/04/11 03:49:52;;;;;;;4.67;3.40;;;9.50;99.90;;;;;;5019719;28;20268;-77
2021/04/11 03:52:31;;;;;;;3.60;3.30;;;9.60;99.90;;;;;;5035471;28;20373;-77
2021/04/11 03:55:01;;;;;;;3.77;3.37;;;9.60;99.90;;;;;;5037506;28;20260;-77
2021/04/11 03:57:37;;;;;;;4.00;3.37;;;9.60;99.90;;;;;;5035729;28;20307;-77
2021/04/11 04:00:13;;;;;;;3.60;2.97;;;9.60;99.90;;;;;;5035077;28;20201;-77
2021/04/11 04:02:41;;;;;;;4.53;3.40;;;9.60;99.90;;;;;;5024110;28;20185;-77
2021/04/11 04:05:12;;;;;;;4.17;3.30;;;9.60;99.90;;;;;;5034900;28;20569;-80
2021/04/11 04:07:49;;;;;;;3.17;2.87;;;9.70;99.90;;;;;;5031329;28;20199;-77
2021/04/11 04:10:18;;;;;;;5.10;3.23;;;9.70;99.90;;;;;;5033186;28;20186;-79
2021/04/11 04:12:47;;;;;;;3.50;2.80;;;9.70;99.90;;;;;;5035229;28;20240;-77
2021/04/11 04:15:34;;;;;;;4.47;2.70;;;9.70;99.90;;;;;;5034830;28;20256;-77
2021/04/11 04:18:27;;;;;;;2.97;2.53;;;9.70;99.90;;;;;;5035568;28;20718;-76
2021/04/11 04:21:20;;;;;;;2.90;2.50;;;9.70;99.90;;;;;;5035364;28;20181;-77
2021/04/11 04:24:43;;;;;;;3.50;2.77;;;9.70;99.90;;;;;;5036015;28;20188;-77
2021/04/11 04:27:29;;;;;;;3.53;3.20;;;9.70;99.90;;;;;;4993817;28;20205;-77
2021/04/11 04:30:16;;;;;;;4.17;2.83;;;9.70;99.90;;;;;;4993358;28;20176;-79
2021/04/11 04:33:11;;;;;;;4.30;3.20;;;9.60;99.90;;;;;;5011778;28;20688;-76
2021/04/11 04:35:59;;;;;;;2.30;2.10;;;9.70;99.90;;;;;;5035195;28;20177;-77
2021/04/11 04:39:12;;;;;;;3.07;2.40;;;9.60;99.90;;;;;;5036444;28;20193;-77
2021/04/11 04:41:44;;;;;;;4.73;2.87;;;9.60;99.90;;;;;;5005991;28;20192;-77
2021/04/11 04:44:40;;;;;;;5.83;3.07;;;9.60;99.90;;;;;;5052815;28;20180;-77
2021/04/11 04:47:20;;;;;;;5.87;3.13;;;9.50;99.90;;;;;;5034517;28;20181;-79
2021/04/11 04:50:07;;;;;;;7.27;3.37;;;9.50;99.90;;;;;;5034475;28;20197;-77
2021/04/11 04:52:34;;;;;;;5.00;2.97;;;9.50;99.90;;;;;;5034748;28;20253;-78
2021/04/11 04:55:12;;;;;;;3.20;2.80;;;9.40;99.90;;;;;;5034705;28;20176;-77
2021/04/11 04:57:45;;;;;;;3.00;2.70;;;9.30;99.90;;;;;;5034623;28;20206;-77
2021/04/11 05:00:39;;;;;;;2.97;2.33;;;9.20;99.90;;;;;;5033352;28;20209;-79
2021/04/11 05:03:16;;;;;;;2.80;2.47;;;9.20;99.90;;;;;;5007384;28;20201;-78
2021/04/11 05:05:47;;;;;;;4.77;3.30;;;9.20;99.90;;;;;;5018044;28;20678;-79
2021/04/11 05:08:34;;;;;;;3.33;2.77;;;9.20;99.90;;;;;;5014647;28;20229;-77
2021/04/11 05:11:21;;;;;;;5.00;3.03;;;9.10;99.90;;;;;;5027973;28;20185;-78
2021/04/11 05:13:55;;;;;;;4.27;2.93;;;9.20;99.90;;;;;;5033788;28;20181;-78
2021/04/11 05:16:28;;;;;;;3.53;3.23;;;9.10;99.90;;;;;;5031271;28;20181;-77
2021/04/11 05:19:21;;;;;;;3.00;2.70;;;9.00;99.90;;;;;;5034005;28;20213;-77
2021/04/11 05:22:00;;;;;;;4.70;2.80;;;9.10;99.90;;;;;;5033803;28;20179;-77
2021/04/11 05:24:33;;;;;;;4.07;3.00;;;9.20;99.90;;;;;;5033933;28;20183;-79
2021/04/11 05:27:07;;;;;;;4.50;2.53;;;9.10;99.90;;;;;;5032795;28;20185;-78
2021/04/11 05:30:01;;;;;;;2.73;2.50;;;9.10;99.90;;;;;;5034044;28;20196;-77
2021/04/11 05:32:28;;;;;;;2.80;2.60;;;9.20;99.90;;;;;;5033978;28;20187;-77
2021/04/11 05:34:56;;;;;;;2.70;2.50;;;9.30;99.90;;;;;;5032971;28;20186;-76
2021/04/11 05:37:34;;;;;;;2.73;2.33;;;9.30;99.90;;;;;;5033879;28;20193;-77
2021/04/11 05:40:35;;;;;;;2.50;2.30;;;9.30;99.90;;;;;;5033517;28;20267;-77
2021/04/11 05:43:05;;;;;;;2.53;2.33;;;9.40;99.90;;;;;;5034043;28;20530;-77
2021/04/11 05:45:50;;;;;;;3.37;2.67;;;9.40;99.90;;;;;;5035153;28;20666;-77
2021/04/11 05:48:41;;;;;;;4.20;2.60;;;9.40;99.90;;;;;;5033476;28;20287;-77
2021/04/11 05:51:10;;;;;;;3.87;2.90;;;9.40;99.90;;;;;;5032816;28;20215;-77
2021/04/11 05:53:35;;;;;;;3.87;2.30;;;9.40;99.90;;;;;;5033288;28;20575;-77
2021/04/11 05:56:11;;;;;;;3.63;2.40;;;9.40;99.90;;;;;;5032252;28;20209;-77
2021/04/11 05:58:45;;;;;;;6.80;2.67;;;9.40;99.90;;;;;;5032689;28;20197;-77
2021/04/11 06:01:27;;;;;;;2.80;2.50;;;9.50;99.90;;;;;;5014918;28;20178;-77
2021/04/11 06:04:04;;;;;;;3.20;2.43;;;9.60;99.90;;;;;;5013752;28;20668;-77
2021/04/11 06:06:39;;;;;;;2.80;2.57;;;9.60;99.90;;;;;;5026135;28;20173;-77
2021/04/11 06:09:10;;;;;;;4.03;3.70;;;9.60;99.90;;;;;;5031472;28;20737;-77
2021/04/11 06:11:48;;;;;;;3.83;3.37;;;9.60;99.90;;;;;;5032348;28;20689;-77
2021/04/11 06:14:22;;;;;;;3.50;2.80;;;9.60;99.90;;;;;;5026236;28;20275;-77
2021/04/11 06:16:50;;;;;;;4.10;2.83;;;9.70;99.90;;;;;;5026508;28;20189;-77
2021/04/11 06:19:18;;;;;;;8.83;3.67;;;9.70;99.90;;;;;;5014840;28;20200;-77
2021/04/11 06:21:47;;;;;;;4.40;3.37;;;9.70;99.90;;;;;;5014276;28;20727;-77
2021/04/11 06:24:48;;;;;;;5.37;3.17;;;9.70;99.90;;;;;;5029236;28;20185;-77
2021/04/11 06:27:46;;;;;;;5.00;3.57;;;9.80;99.90;;;;;;5033797;28;20182;-77
2021/04/11 06:30:18;;;;;;;5.73;3.40;;;9.80;99.90;;;;;;5023808;28;20663;-77
2021/04/11 06:33:09;;;;;;;7.07;2.90;;;9.90;99.90;;;;;;5032180;28;20178;-77
2021/04/11 06:35:45;;;;;;;71.40;7.57;;;9.80;99.90;;;;;;5033305;28;20175;-78
2021/04/11 06:38:14;;;;;;;4.17;3.07;;;9.90;99.90;;;;;;5033162;28;20667;-76
2021/04/11 06:41:08;;;;;;;3.70;3.40;;;9.90;99.90;;;;;;5035748;28;20193;-77
2021/04/11 06:44:05;;;;;;;4.70;4.10;;;10.00;99.90;;;;;;5038683;28;20173;-77
2021/04/11 06:46:40;;;;;;;4.13;3.73;;;10.10;99.90;;;;;;5033232;28;20539;-77
2021/04/11 06:49:40;;;;;;;7.83;3.77;;;10.20;99.90;;;;;;5032944;28;20568;-77
2021/04/11 06:52:38;;;;;;;5.53;3.73;;;10.30;99.90;;;;;;5027436;28;20556;-77
2021/04/11 06:55:14;;;;;;;6.67;3.63;;;10.40;99.90;;;;;;5042978;28;20607;-75
2021/04/11 06:57:50;;;;;;;12.93;4.03;;;10.50;99.90;;;;;;5030016;28;20582;-77
2021/04/11 07:00:27;;;;;;;5.97;3.63;;;10.40;99.90;;;;;;5034615;28;20194;-77
2021/04/11 07:03:20;;;;;;;6.67;4.30;;;10.60;99.90;;;;;;5031639;28;20178;-77
2021/04/11 07:06:07;;;;;;;13.93;4.23;;;10.70;99.90;;;;;;5037669;28;20253;-77
2021/04/11 07:08:58;;;;;;;10.17;4.60;;;10.80;99.90;;;;;;5036687;28;20681;-77
2021/04/11 07:11:49;;;;;;;5.10;3.80;;;10.80;99.90;;;;;;5035056;28;20177;-76
2021/04/11 07:14:53;;;;;;;7.27;3.70;;;10.90;99.90;;;;;;5036581;28;20188;-76
2021/04/11 07:17:54;;;;;;;7.33;3.97;;;11.00;99.90;;;;;;5036130;28;20257;-76
2021/04/11 07:20:35;;;;;;;6.57;4.23;;;11.00;99.90;;;;;;5034746;28;20707;-77
2021/04/11 07:23:35;;;;;;;6.53;4.03;;;11.10;99.90;;;;;;5035207;28;20179;-77
2021/04/11 07:26:25;;;;;;;8.20;4.20;;;11.10;99.90;;;;;;5036344;28;20655;-76
2021/04/11 07:29:07;;;;;;;5.43;4.30;;;11.30;99.90;;;;;;5036246;28;20255;-76
2021/04/11 07:32:10;;;;;;;6.13;4.13;;;11.30;99.90;;;;;;5036287;28;20178;-76
2021/04/11 07:35:13;;;;;;;4.17;3.70;;;11.30;99.90;;;;;;5036270;28;20185;-77
2021/04/11 07:37:54;;;;;;;4.10;3.80;;;11.40;99.90;;;;;;5035939;28;20749;-76
2021/04/11 07:40:28;;;;;;;5.47;3.80;;;11.40;99.90;;;;;;5034766;28;20229;-76
2021/04/11 07:43:00;;;;;;;4.57;3.97;;;11.50;99.90;;;;;;5035492;28;20174;-76
2021/04/11 07:45:42;;;;;;;6.10;4.17;;;11.50;99.90;;;;;;5035498;28;20197;-77
2021/04/11 07:48:30;;;;;;;3.17;2.87;;;11.40;99.90;;;;;;5026872;28;20677;-76
2021/04/11 07:51:11;;;;;;;5.13;3.20;;;11.50;99.90;;;;;;5035566;28;20241;-77
2021/04/11 07:54:15;;;;;;;4.03;3.30;;;11.50;99.90;;;;;;5035408;28;20179;-77
2021/04/11 07:56:40;;;;;;;3.97;3.40;;;11.60;99.90;;;;;;5032464;28;20220;-77
2021/04/11 07:59:55;;;;;;;9.40;3.10;;;11.90;99.90;;;;;;5034134;28;20206;-77
2021/04/11 08:02:56;;;;;;;3.13;2.80;;;12.00;99.90;;;;;;4988055;28;20172;-77
2021/04/11 08:05:52;;;;;;;4.30;3.20;;;12.10;99.90;;;;;;4976305;28;20179;-77
2021/04/11 08:08:36;;;;;;;3.20;2.90;;;12.10;99.90;;;;;;5015435;28;20713;-79
2021/04/11 08:11:35;;;;;;;3.60;3.27;;;12.30;99.90;;;;;;5016071;28;20609;-77
2021/04/11 08:14:45;;;;;;;4.53;3.17;;;12.40;99.90;;;;;;5013723;28;20218;-81
2021/04/11 08:17:22;;;;;;;2.87;2.60;;;12.50;99.90;;;;;;5018433;28;20194;-76
2021/04/11 08:19:48;;;;;;;2.93;2.67;;;12.60;99.90;;;;;;5035160;28;20194;-77
2021/04/11 08:22:16;;;;;;;3.40;2.67;;;12.70;99.90;;;;;;5030935;28;20175;-78
2021/04/11 08:24:46;;;;;;;5.70;2.50;;;12.80;99.90;;;;;;5034279;28;20559;-77
2021/04/11 08:27:46;;;;;;;2.73;2.50;;;12.80;99.90;;;;;;5034445;28;20185;-77
2021/04/11 08:30:42;;;;;;;3.67;2.53;;;12.80;99.90;;;;;;5031902;28;20191;-77
2021/04/11 08:33:29;;;;;;;3.43;2.63;;;12.90;99.90;;;;;;5033761;28;20174;-76
2021/04/11 08:36:19;;;;;;;4.17;2.67;;;13.00;99.90;;;;;;5035349;28;20172;-77
2021/04/11 08:39:08;;;;;;;3.23;2.93;;;13.00;99.90;;;;;;5035171;28;20218;-77
2021/04/11 08:42:05;;;;;;;2.70;2.43;;;13.10;99.90;;;;;;5005193;28;20195;-77
2021/04/11 08:45:00;;;;;;;2.97;2.50;;;13.20;99.90;;;;;;5030758;28;20245;-77
2021/04/11 08:47:30;;;;;;;3.20;2.33;;;13.30;99.90;;;;;;5034807;28;20191;-76
2021/04/11 08:49:59;;;;;;;2.97;2.67;;;13.30;99.90;;;;;;5033787;28;20598;-76
2021/04/11 08:52:43;;;;;;;5.83;2.10;;;13.40;99.90;;;;;;5032920;28;20184;-76
2021/04/11 08:55:23;;;;;;;4.13;2.93;;;13.50;99.90;;;;;;5030481;28;20207;-76
2021/04/11 08:57:57;;;;;;;3.20;2.53;;;13.70;99.90;;;;;;5034537;28;20201;-77
2021/04/11 09:00:34;;;;;;;5.17;2.20;;;13.80;99.90;;;;;;5034437;28;20282;-76
2021/04/11 09:03:14;;;;;;;3.40;2.20;;;13.80;99.90;;;;;;5034144;28;20190;-76
2021/04/11 09:05:52;;;;;;;2.87;2.10;;;13.90;99.90;;;;;;5034432;28;20224;-76
2021/04/11 09:08:39;;;;;;;2.87;2.57;;;14.00;99.90;;;;;;5034488;28;20210;-77
2021/04/11 09:11:26;;;;;;;6.07;2.60;;;14.00;99.90;;;;;;5035282;28;20235;-76
2021/04/11 09:14:20;;;;;;;4.83;2.47;;;14.20;99.90;;;;;;5034073;28;20182;-77
2021/04/11 09:16:51;;;;;;;3.63;2.13;;;14.30;99.90;;;;;;5033375;28;20181;-77
2021/04/11 09:19:33;;;;;;;2.53;2.20;;;14.50;99.90;;;;;;5033728;28;20695;-77
2021/04/11 09:22:24;;;;;;;2.90;2.33;;;14.50;99.90;;;;;;5033675;28;20174;-77
2021/04/11 09:24:58;;;;;;;3.33;2.30;;;14.70;99.90;;;;;;5035313;28;20279;-77
2021/04/11 09:27:52;;;;;;;2.37;2.03;;;14.80;99.90;;;;;;5024041;28;20213;-77
2021/04/11 09:30:46;;;;;;;6.20;2.30;;;14.90;99.90;;;;;;5033867;28;20202;-77
2021/04/11 09:33:43;;;;;;;2.37;2.10;;;15.20;99.90;;;;;;5035425;28;20178;-77
2021/04/11 09:36:44;;;;;;;2.87;1.87;;;15.30;99.90;;;;;;5033658;28;20180;-76
2021/04/11 09:39:30;;;;;;;2.97;1.67;;;15.40;99.90;;;;;;5034133;28;20281;-76
2021/04/11 09:42:26;;;;;;;11.43;2.30;;;15.50;99.90;;;;;;5030200;28;20178;-77
2021/04/11 09:45:12;;;;;;;3.57;2.23;;;15.50;99.90;;;;;;5031710;28;20257;-77
2021/04/11 09:48:14;;;;;;;8.33;2.10;;;15.50;99.90;;;;;;5034087;28;20206;-76
2021/04/11 09:50:47;;;;;;;7.87;2.17;;;15.50;99.90;;;;;;5060946;23;20660;-80
2021/04/11 09:53:48;;;;;;;2.90;1.70;;;15.60;99.90;;;;;;5055002;28;20201;-80
2021/04/11 09:56:30;;;;;;;2.70;1.83;;;15.80;99.90;;;;;;5053237;28;20180;-80
2021/04/11 09:59:07;;;;;;;2.93;1.33;;;15.80;99.90;;;;;;5056407;28;20729;-81
2021/04/11 10:01:53;;;;;;;9.53;1.80;;;15.70;99.90;;;;;;5044879;28;20173;-80
2021/04/11 10:04:28;;;;;;;1.70;1.60;;;15.90;99.90;;;;;;5047541;28;20656;-79
2021/04/11 10:07:26;;;;;;;3.37;1.43;;;16.10;99.90;;;;;;5055519;28;20588;-80
2021/04/11 10:10:30;;;;;;;3.47;1.50;;;16.20;99.90;;;;;;5056019;28;20201;-80
2021/04/11 10:13:10;;;;;;;4.43;1.70;;;16.40;99.90;;;;;;5055351;28;20185;-80
2021/04/11 10:15:52;;;;;;;2.33;1.40;;;16.50;99.90;;;;;;5040449;28;20186;-80
2021/04/11 10:18:30;;;;;;;2.23;1.90;;;16.50;99.90;;;;;;5049679;28;20185;-83
2021/04/11 10:21:11;;;;;;;6.13;1.70;;;16.50;99.90;;;;;;5048631;28;20201;-80
2021/04/11 10:24:05;;;;;;;4.00;1.63;;;16.50;99.90;;;;;;5047482;28;20235;-82
2021/04/11 10:26:58;;;;;;;2.47;1.70;;;16.40;99.90;;;;;;5049031;28;20245;-81
2021/04/11 10:29:27;;;;;;;3.23;1.47;;;16.50;99.90;;;;;;5041220;28;20205;-79
2021/04/11 10:32:08;;;;;;;3.43;1.67;;;16.70;99.90;;;;;;5053546;28;20173;-81
2021/04/11 10:35:09;;;;;;;12.87;2.20;;;16.80;99.90;;;;;;5053673;28;20634;-79
2021/04/11 10:37:43;;;;;;;2.30;1.60;;;17.00;99.90;;;;;;5052338;28;20554;-79
2021/04/11 10:40:38;;;;;;;2.53;1.53;;;17.20;99.90;;;;;;5053955;28;20563;-78
2021/04/11 10:43:16;;;;;;;1.87;1.67;;;17.30;99.90;;;;;;5048544;28;20212;-79
2021/04/11 10:45:57;;;;;;;2.80;1.90;;;17.40;99.90;;;;;;5052410;28;20750;-81
2021/04/11 10:48:34;;;;;;;3.07;1.67;;;17.50;99.70;;;;;;5062762;28;20239;-78
2021/04/11 10:51:27;;;;;;;4.13;1.93;;;17.40;99.10;;;;;;5042098;28;20212;-78
2021/04/11 10:54:17;;;;;;;1.97;1.70;;;17.40;99.90;;;;;;5050185;28;20186;-78
2021/04/11 10:57:21;;;;;;;2.37;1.70;;;17.50;99.00;;;;;;5041147;28;20177;-78
2021/04/11 11:00:07;;;;;;;2.43;1.50;;;17.50;99.20;;;;;;5049830;28;20213;-80
2021/04/11 11:02:57;;;;;;;3.03;1.80;;;17.50;99.90;;;;;;5052082;28;20673;-75
2021/04/11 11:05:44;;;;;;;4.20;1.63;;;18.00;99.90;;;;;;5045021;28;20202;-75
2021/04/11 11:08:29;;;;;;;4.50;1.53;;;18.20;99.40;;;;;;5050008;28;20178;-75
2021/04/11 11:11:19;;;;;;;3.03;1.63;;;18.40;98.90;;;;;;5051734;28;20201;-77
2021/04/11 11:14:11;;;;;;;4.67;1.80;;;18.10;98.00;;;;;;5045818;28;20178;-78
2021/04/11 11:16:40;;;;;;;2.40;1.40;;;18.20;98.70;;;;;;5049110;28;20656;-77
2021/04/11 11:19:36;;;;;;;3.07;1.77;;;18.40;97.60;;;;;;5048215;28;20240;-77
2021/04/11 11:22:07;;;;;;;2.33;1.40;;;18.40;99.10;;;;;;5050079;28;20556;-76
2021/04/11 11:24:36;;;;;;;2.73;1.50;;;18.60;98.70;;;;;;5052829;28;20198;-75
2021/04/11 11:27:29;;;;;;;3.00;1.50;;;18.80;97.50;;;;;;5052409;28;20180;-77
2021/04/11 11:30:06;;;;;;;3.80;1.80;;;18.80;98.10;;;;;;5050844;28;20679;-77
2021/04/11 11:33:02;;;;;;;3.23;1.60;;;18.80;99.10;;;;;;5051298;28;20181;-78
2021/04/11 11:35:28;;;;;;;3.20;1.30;;;19.00;97.90;;;;;;5044250;28;20218;-76
2021/04/11 11:38:09;;;;;;;1.67;1.20;;;19.00;98.20;;;;;;5052614;28;20177;-76
2021/04/11 11:40:53;;;;;;;2.00;1.10;;;19.40;97.90;;;;;;5050711;28;20550;-75
2021/04/11 11:43:43;;;;;;;2.60;1.23;;;19.60;96.50;;;;;;5052868;28;20234;-75
2021/04/11 11:46:23;;;;;;;2.40;1.30;;;19.70;96.10;;;;;;5050007;28;20184;-76
2021/04/11 11:49:02;;;;;;;2.23;1.60;;;19.80;95.30;;;;;;5054383;28;20174;-74
2021/04/11 11:51:59;;;;;;;1.20;1.00;;;19.50;95.40;;;;;;5054212;28;20232;-76
2021/04/11 11:54:37;;;;;;;2.07;1.23;;;19.50;97.10;;;;;;5052918;28;20185;-77
2021/04/11 11:57:16;;;;;;;1.30;1.00;;;19.60;93.80;;;;;;5045887;28;20173;-77
2021/04/11 12:00:12;;;;;;;0.83;0.80;;;19.20;94.40;;;;;;5039549;28;20248;-76
2021/04/11 12:03:03;;;;;;;3.40;1.20;;;19.30;94.20;;;;;;5044586;28;20197;-76
2021/04/11 12:05:40;;;;;;;2.23;1.00;;;19.50;94.30;;;;;;5053298;28;20181;-77
2021/04/11 12:08:17;;;;;;;1.23;0.60;;;19.70;94.60;;;;;;5050326;28;20193;-80
2021/04/11 12:11:24;;;;;;;3.70;1.10;;;19.90;94.00;;;;;;5042233;28;20209;-78
2021/04/11 12:14:02;;;;;;;2.03;0.90;;;20.00;93.30;;;;;;5052305;28;20267;-79
2021/04/11 12:16:35;;;;;;;2.70;0.70;;;19.90;93.10;;;;;;5069400;28;20260;-78
2021/04/11 12:19:04;;;;;;;3.77;0.80;;;19.80;93.10;;;;;;5053107;28;20275;-80
2021/04/11 12:21:40;;;;;;;1.20;0.80;;;19.90;93.70;;;;;;5054830;28;20181;-79
2021/04/11 12:24:20;;;;;;;0.70;0.67;;;19.90;92.60;;;;;;5056384;28;20670;-79
2021/04/11 12:26:49;;;;;;;1.33;0.70;;;19.80;92.80;;;;;;5056658;28;20663;-79
2021/04/11 12:29:20;;;;;;;0.70;0.60;;;20.00;93.30;;;;;;5056399;28;20225;-79
2021/04/11 12:32:09;;;;;;;3.13;0.80;;;20.30;93.60;;;;;;5056241;28;20185;-79
2021/04/11 12:34:44;;;;;;;2.30;0.83;;;20.50;93.10;;;;;;5045700;28;20198;-78
2021/04/11 12:37:32;;;;;;;3.83;0.90;;;20.40;94.10;;;;;;5055206;28;20173;-78
2021/04/11 12:40:25;;;;;;;0.70;0.60;;;20.50;93.30;;;;;;5055378;28;20206;-79
2021/04/11 12:43:16;;;;;;;0.50;0.50;;;20.50;91.20;;;;;;5055112;28;20196;-79
2021/04/11 12:45:48;;;;;;;1.30;0.60;;;20.50;91.10;;;;;;5051061;28;20171;-78
2021/04/11 12:48:41;;;;;;;2.27;0.80;;;20.60;92.30;;;;;;5043465;28;20190;-79
2021/04/11 12:51:18;;;;;;;2.07;0.63;;;20.80;93.60;;;;;;5044756;28;20205;-77
2021/04/11 12:54:04;;;;;;;0.70;0.50;;;20.90;92.30;;;;;;5051830;28;20188;-78
2021/04/11 12:56:32;;;;;;;1.57;0.87;;;21.00;91.70;;;;;;5041445;28;20213;-78
2021/04/11 12:59:03;;;;;;;6.20;1.20;;;21.00;91.80;;;;;;5050256;28;20688;-77
2021/04/11 13:01:49;;;;;;;0.90;0.80;;;21.00;91.20;;;;;;5056464;28;20166;-77
2021/04/11 13:04:36;;;;;;;2.33;0.83;;;21.00;91.30;;;;;;5053018;28;20664;-78
2021/04/11 13:07:30;;;;;;;1.87;0.90;;;20.80;92.20;;;;;;5053730;28;20172;-77
2021/04/11 13:10:24;;;;;;;2.37;0.90;;;20.60;91.30;;;;;;5054759;28;20190;-78
2021/04/11 13:13:16;;;;;;;1.00;0.80;;;20.60;91.00;;;;;;5054286;28;20243;-77
2021/04/11 13:16:01;;;;;;;1.33;0.60;;;20.70;90.90;;;;;;5047694;28;20232;-77
2021/04/11 13:18:44;;;;;;;0.80;0.70;;;20.90;91.00;;;;;;5053294;28;20181;-76
2021/04/11 13:21:35;;;;;;;0.80;0.70;;;20.80;91.10;;;;;;5054276;28;20247;-77
2021/04/11 13:24:22;;;;;;;0.73;0.70;;;20.90;90.60;;;;;;5054705;28;20232;-77
2021/04/11 13:27:00;;;;;;;1.00;0.70;;;20.90;91.70;;;;;;5054405;28;20170;-77
2021/04/11 13:29:48;;;;;;;1.17;0.87;;;21.00;92.10;;;;;;5053436;28;20235;-77
2021/04/11 13:32:25;;;;;;;1.17;0.73;;;20.90;92.70;;;;;;5053658;28;20182;-78
2021/04/11 13:35:29;;;;;;;0.90;0.70;;;21.00;93.30;;;;;;5054288;28;20188;-77
2021/04/11 13:38:12;;;;;;;1.87;0.60;;;21.10;90.10;;;;;;5037688;28;20281;-77
2021/04/11 13:40:39;;;;;;;2.43;0.73;;;21.20;90.00;;;;;;5052582;28;20255;-78
2021/04/11 13:43:55;;;;;;;3.33;1.00;;;21.40;90.50;;;;;;5052055;28;20243;-78
2021/04/11 13:47:06;;;;;;;0.87;0.70;;;21.00;91.10;;;;;;5012447;28;20611;-78
2021/04/11 13:49:54;;;;;;;1.53;0.60;;;21.10;91.60;;;;;;5012275;28;20364;-78
2021/04/11 13:52:37;;;;;;;1.10;0.73;;;20.80;91.30;;;;;;5047375;28;20228;-77
2021/04/11 13:55:10;;;;;;;4.53;1.17;;;20.60;91.50;;;;;;5044441;28;20223;-77